createdAt,value
2023-04-28T00:00:08.343Z,53.59
2023-04-28T00:01:08.273Z,50.24
2023-04-28T00:02:08.274Z,52.98
2023-04-28T00:03:08.379Z,52.35
2023-04-28T00:04:08.639Z,51.95
2023-04-28T00:05:08.266Z,49.70
2023-04-28T00:06:08.227Z,52.24
2023-04-28T00:07:08.223Z,50.46
2023-04-28T00:08:08.217Z,53.61
2023-04-28T00:09:08.198Z,51.17
2023-04-28T00:10:09.226Z,53.19
2023-04-28T00:11:08.195Z,50.68
2023-04-28T00:12:08.199Z,49.73
2023-04-28T00:13:08.190Z,50.09
2023-04-28T00:14:08.182Z,49.00
2023-04-28T00:15:08.180Z,48.57
2023-04-28T00:16:08.171Z,54.04
2023-04-28T00:17:08.195Z,54.82
2023-04-28T00:18:08.191Z,52.97
2023-04-28T00:19:08.324Z,50.39
2023-04-28T00:20:08.145Z,49.99
2023-04-28T00:21:08.138Z,50.60
2023-04-28T00:22:08.142Z,53.34
2023-04-28T00:23:08.120Z,51.51
2023-04-28T00:24:08.117Z,49.07
2023-04-28T00:25:09.131Z,52.15
2023-04-28T00:26:08.109Z,51.85
2023-04-28T00:27:08.096Z,51.89
2023-04-28T00:28:08.081Z,50.30
2023-04-28T00:29:08.065Z,49.06
2023-04-28T00:30:08.097Z,53.08
2023-04-28T00:31:08.052Z,52.09
2023-04-28T00:32:08.162Z,51.28
2023-04-28T00:33:08.078Z,53.82
2023-04-28T00:34:08.034Z,51.20
2023-04-28T00:35:08.049Z,49.33
2023-04-28T00:36:08.017Z,51.93
2023-04-28T00:37:08.012Z,52.03
2023-04-28T00:38:08.025Z,49.03
2023-04-28T00:39:08.001Z,50.79
2023-04-28T00:40:08.010Z,51.37
2023-04-28T00:41:08.000Z,51.57
2023-04-28T00:42:08.002Z,53.28
2023-04-28T00:43:07.968Z,52.92
2023-04-28T00:44:07.961Z,48.32
2023-04-28T00:45:07.972Z,52.68
2023-04-28T00:46:08.035Z,50.90
2023-04-28T00:47:07.970Z,52.63
2023-04-28T00:48:08.016Z,53.39
2023-04-28T00:49:07.929Z,50.79
2023-04-28T00:50:07.933Z,50.62
2023-04-28T00:51:07.928Z,50.37
2023-04-28T00:52:07.922Z,51.61
2023-04-28T00:53:07.922Z,51.51
2023-04-28T00:54:07.899Z,51.44
2023-04-28T00:55:07.890Z,48.29
2023-04-28T00:56:07.880Z,48.66
2023-04-28T00:57:07.885Z,53.13
2023-04-28T00:58:07.870Z,50.97
2023-04-28T00:59:07.860Z,54.72
2023-04-28T01:00:07.868Z,54.18
2023-04-28T01:01:07.894Z,53.11
2023-04-28T01:02:07.972Z,52.37
2023-04-28T01:03:08.153Z,51.13
2023-04-28T01:04:08.257Z,51.29
2023-04-28T01:05:07.827Z,51.71
2023-04-28T01:06:07.825Z,53.90
2023-04-28T01:07:07.801Z,51.98
2023-04-28T01:08:07.802Z,50.18
2023-04-28T01:09:07.798Z,56.36
2023-04-28T01:10:07.797Z,56.22
2023-04-28T01:11:07.773Z,53.71
2023-04-28T01:12:07.770Z,48.31
2023-04-28T01:13:07.763Z,53.65
2023-04-28T01:14:07.758Z,53.39
2023-04-28T01:15:07.849Z,53.44
2023-04-28T01:16:07.881Z,48.44
2023-04-28T01:17:07.739Z,53.61
2023-04-28T01:18:07.767Z,49.35
2023-04-28T01:19:07.725Z,52.19
2023-04-28T01:20:07.727Z,55.39
2023-04-28T01:21:07.723Z,52.68
2023-04-28T01:22:07.708Z,54.01
2023-04-28T01:23:07.687Z,52.42
2023-04-28T01:24:07.692Z,51.16
2023-04-28T01:25:07.706Z,49.05
2023-04-28T01:26:08.674Z,50.41
2023-04-28T01:27:07.691Z,53.67
2023-04-28T01:28:07.660Z,50.75
2023-04-28T01:29:07.657Z,51.22
2023-04-28T01:30:07.669Z,50.01
2023-04-28T01:31:07.706Z,54.25
2023-04-28T01:32:07.665Z,54.90
2023-04-28T01:33:07.744Z,50.73
2023-04-28T01:34:07.622Z,53.34
2023-04-28T01:35:07.621Z,51.33
2023-04-28T01:36:07.635Z,48.82
2023-04-28T01:37:07.639Z,48.59
2023-04-28T01:38:07.607Z,50.46
2023-04-28T01:39:08.588Z,52.63
2023-04-28T01:40:07.590Z,51.86
2023-04-28T01:41:07.578Z,54.16
2023-04-28T01:42:07.602Z,51.94
2023-04-28T01:43:07.580Z,51.75
2023-04-28T01:44:07.587Z,51.77
2023-04-28T01:45:07.545Z,52.51
2023-04-28T01:46:08.580Z,54.67
2023-04-28T01:47:07.543Z,52.31
2023-04-28T01:48:07.545Z,54.04
2023-04-28T01:49:07.547Z,53.72
2023-04-28T01:50:07.522Z,52.91
2023-04-28T01:51:07.509Z,51.59
2023-04-28T01:52:07.536Z,51.33
2023-04-28T01:53:07.511Z,51.19
2023-04-28T01:54:07.533Z,49.36
2023-04-28T01:55:07.487Z,48.15
2023-04-28T01:56:07.469Z,50.47
2023-04-28T01:57:07.469Z,49.01
2023-04-28T01:58:07.479Z,49.00
2023-04-28T01:59:07.511Z,53.65
2023-04-28T02:00:07.462Z,52.08
2023-04-28T02:01:07.470Z,51.46
2023-04-28T02:02:07.437Z,53.23
2023-04-28T02:03:07.464Z,52.63
2023-04-28T02:04:07.487Z,50.78
2023-04-28T02:05:07.433Z,52.96
2023-04-28T02:06:07.399Z,51.42
2023-04-28T02:07:07.405Z,49.28
2023-04-28T02:08:07.396Z,49.23
2023-04-28T02:09:07.386Z,48.93
2023-04-28T02:10:07.413Z,51.40
2023-04-28T02:11:07.378Z,51.55
2023-04-28T02:12:07.378Z,52.00
2023-04-28T02:13:07.357Z,49.50
2023-04-28T02:14:07.351Z,51.17
2023-04-28T02:15:07.366Z,49.82
2023-04-28T02:16:08.393Z,56.53
2023-04-28T02:17:07.338Z,52.28
2023-04-28T02:18:07.372Z,52.35
2023-04-28T02:19:07.310Z,51.90
2023-04-28T02:20:07.330Z,54.39
2023-04-28T02:21:07.326Z,51.82
2023-04-28T02:22:07.315Z,56.46
2023-04-28T02:23:07.286Z,52.84
2023-04-28T02:24:07.275Z,54.77
2023-04-28T02:25:07.269Z,53.18
2023-04-28T02:26:07.263Z,55.88
2023-04-28T02:27:07.282Z,52.82
2023-04-28T02:28:07.250Z,54.59
2023-04-28T02:29:07.241Z,56.76
2023-04-28T02:30:07.262Z,53.39
2023-04-28T02:31:07.330Z,51.83
2023-04-28T02:32:07.238Z,54.33
2023-04-28T02:33:07.281Z,54.41
2023-04-28T02:34:07.207Z,54.87
2023-04-28T02:35:07.235Z,52.63
2023-04-28T02:36:07.201Z,53.30
2023-04-28T02:37:07.200Z,54.57
2023-04-28T02:38:07.196Z,54.45
2023-04-28T02:39:07.182Z,53.14
2023-04-28T02:40:07.171Z,56.79
2023-04-28T02:41:07.163Z,54.79
2023-04-28T02:42:07.158Z,52.44
2023-04-28T02:43:07.235Z,52.49
2023-04-28T02:44:07.165Z,54.46
2023-04-28T02:45:07.141Z,53.80
2023-04-28T02:46:07.130Z,53.88
2023-04-28T02:47:07.416Z,54.33
2023-04-28T02:48:07.151Z,53.56
2023-04-28T02:49:07.130Z,55.31
2023-04-28T02:50:07.116Z,56.97
2023-04-28T02:51:07.130Z,57.29
2023-04-28T02:52:07.087Z,55.17
2023-04-28T02:53:07.176Z,56.09
2023-04-28T02:54:07.121Z,52.17
2023-04-28T02:55:07.066Z,52.68
2023-04-28T02:56:07.070Z,53.47
2023-04-28T02:57:07.054Z,53.79
2023-04-28T02:58:07.045Z,55.18
2023-04-28T02:59:07.045Z,57.44
2023-04-28T03:00:07.031Z,55.44
2023-04-28T03:01:07.052Z,55.63
2023-04-28T03:02:07.058Z,53.60
2023-04-28T03:03:07.150Z,54.84
2023-04-28T03:04:07.309Z,55.11
2023-04-28T03:05:07.001Z,54.84
2023-04-28T03:06:06.995Z,55.08
2023-04-28T03:07:07.010Z,56.63
2023-04-28T03:08:06.985Z,54.41
2023-04-28T03:09:06.984Z,54.90
2023-04-28T03:10:06.958Z,55.40
2023-04-28T03:11:06.967Z,56.54
2023-04-28T03:12:06.955Z,57.75
2023-04-28T03:13:06.975Z,56.05
2023-04-28T03:14:06.933Z,56.40
2023-04-28T03:15:07.934Z,56.80
2023-04-28T03:16:06.972Z,58.10
2023-04-28T03:17:06.918Z,57.21
2023-04-28T03:18:06.960Z,56.79
2023-04-28T03:19:06.901Z,59.13
2023-04-28T03:20:06.905Z,56.60
2023-04-28T03:21:06.933Z,58.81
2023-04-28T03:22:06.901Z,57.42
2023-04-28T03:23:06.882Z,58.17
2023-04-28T03:24:06.884Z,56.21
2023-04-28T03:25:06.862Z,58.09
2023-04-28T03:26:06.873Z,58.25
2023-04-28T03:27:06.851Z,57.73
2023-04-28T03:28:06.848Z,60.66
2023-04-28T03:29:06.859Z,57.88
2023-04-28T03:30:06.846Z,58.15
2023-04-28T03:31:06.840Z,57.32
2023-04-28T03:32:06.879Z,58.36
2023-04-28T03:33:06.867Z,58.14
2023-04-28T03:34:06.800Z,59.21
2023-04-28T03:35:06.796Z,59.56
2023-04-28T03:36:06.789Z,57.28
2023-04-28T03:37:06.785Z,59.06
2023-04-28T03:38:06.786Z,58.35
2023-04-28T03:39:06.769Z,59.61
2023-04-28T03:40:06.761Z,58.61
2023-04-28T03:41:06.766Z,58.89
2023-04-28T03:42:06.762Z,59.20
2023-04-28T03:43:06.756Z,60.83
2023-04-28T03:44:06.744Z,60.72
2023-04-28T03:45:06.730Z,59.93
2023-04-28T03:46:06.750Z,59.48
2023-04-28T03:47:06.732Z,61.51
2023-04-28T03:48:06.715Z,60.27
2023-04-28T03:49:06.736Z,60.96
2023-04-28T03:50:06.704Z,60.08
2023-04-28T03:51:06.687Z,61.02
2023-04-28T03:52:07.687Z,59.84
2023-04-28T03:53:06.670Z,59.80
2023-04-28T03:54:06.698Z,60.24
2023-04-28T03:55:06.673Z,58.91
2023-04-28T03:56:06.667Z,59.13
2023-04-28T03:57:06.651Z,59.13
2023-04-28T03:58:06.661Z,59.73
2023-04-28T03:59:06.626Z,59.52
2023-04-28T04:00:06.625Z,59.34
2023-04-28T04:01:06.608Z,59.40
2023-04-28T04:02:06.659Z,59.81
2023-04-28T04:03:06.800Z,60.48
2023-04-28T04:04:06.737Z,59.01
2023-04-28T04:05:06.880Z,58.75
2023-04-28T04:06:06.582Z,60.15
2023-04-28T04:07:06.574Z,59.74
2023-04-28T04:08:06.566Z,59.73
2023-04-28T04:09:06.566Z,58.53
2023-04-28T04:10:06.554Z,57.98
2023-04-28T04:11:06.567Z,58.44
2023-04-28T04:12:06.544Z,58.66
2023-04-28T04:13:06.526Z,59.60
2023-04-28T04:14:06.539Z,59.60
2023-04-28T04:15:06.518Z,59.13
2023-04-28T04:16:06.603Z,60.29
2023-04-28T04:17:06.509Z,59.19
2023-04-28T04:18:06.554Z,58.25
2023-04-28T04:19:06.500Z,60.00
2023-04-28T04:20:06.486Z,61.33
2023-04-28T04:21:06.491Z,60.90
2023-04-28T04:22:06.476Z,61.53
2023-04-28T04:23:06.481Z,58.62
2023-04-28T04:24:06.462Z,59.46
2023-04-28T04:25:06.483Z,59.14
2023-04-28T04:26:06.446Z,59.74
2023-04-28T04:27:06.454Z,59.71
2023-04-28T04:28:06.448Z,59.41
2023-04-28T04:29:06.430Z,60.40
2023-04-28T04:30:06.421Z,61.95
2023-04-28T04:31:06.430Z,60.35
2023-04-28T04:32:06.405Z,60.96
2023-04-28T04:33:06.452Z,59.69
2023-04-28T04:34:06.376Z,60.90
2023-04-28T04:35:06.423Z,61.69
2023-04-28T04:36:06.380Z,59.67
2023-04-28T04:37:06.468Z,59.08
2023-04-28T04:38:06.373Z,59.27
2023-04-28T04:39:06.356Z,59.63
2023-04-28T04:40:06.383Z,60.62
2023-04-28T04:41:06.350Z,60.32
2023-04-28T04:42:22.706Z,60.49
2023-04-28T04:43:08.340Z,60.43
2023-04-28T04:44:06.328Z,60.17
2023-04-28T04:45:06.313Z,60.78
2023-04-28T04:46:06.354Z,61.21
2023-04-28T04:47:06.312Z,61.04
2023-04-28T04:48:06.346Z,59.38
2023-04-28T04:49:06.313Z,60.36
2023-04-28T04:50:06.292Z,61.65
2023-04-28T04:51:06.273Z,60.62
2023-04-28T04:52:06.311Z,60.89
2023-04-28T04:53:06.788Z,59.99
2023-04-28T04:54:06.250Z,59.74
2023-04-28T04:55:06.251Z,59.56
2023-04-28T04:56:06.236Z,59.94
2023-04-28T04:57:06.236Z,60.38
2023-04-28T04:58:06.239Z,61.24
2023-04-28T04:59:06.235Z,60.98
2023-04-28T05:00:06.207Z,58.81
2023-04-28T05:01:06.216Z,62.45
2023-04-28T05:02:06.238Z,62.67
2023-04-28T05:03:06.357Z,63.95
2023-04-28T05:04:06.333Z,65.24
2023-04-28T05:05:19.645Z,65.34
2023-04-28T05:06:08.190Z,62.07
2023-04-28T05:07:06.175Z,59.98
2023-04-28T05:08:06.168Z,60.25
2023-04-28T05:09:06.158Z,60.17
2023-04-28T05:10:06.158Z,62.22
2023-04-28T05:11:06.146Z,59.31
2023-04-28T05:12:06.139Z,59.85
2023-04-28T05:13:07.054Z,60.63
2023-04-28T05:14:06.132Z,61.16
2023-04-28T05:15:06.119Z,61.65
2023-04-28T05:16:06.176Z,61.25
2023-04-28T05:17:06.106Z,61.67
2023-04-28T05:18:06.169Z,60.00
2023-04-28T05:19:06.099Z,60.17
2023-04-28T05:20:06.122Z,60.65
2023-04-28T05:21:06.088Z,59.83
2023-04-28T05:22:06.153Z,59.66
2023-04-28T05:23:06.088Z,58.95
2023-04-28T05:24:06.093Z,60.41
2023-04-28T05:25:06.101Z,61.61
2023-04-28T05:26:06.056Z,60.08
2023-04-28T05:27:06.044Z,59.89
2023-04-28T05:28:06.037Z,59.69
2023-04-28T05:29:06.056Z,59.69
2023-04-28T05:30:06.080Z,58.71
2023-04-28T05:31:06.017Z,60.93
2023-04-28T05:32:06.034Z,59.55
2023-04-28T05:33:06.105Z,59.40
2023-04-28T05:34:05.999Z,61.02
2023-04-28T05:35:05.988Z,60.45
2023-04-28T05:36:06.004Z,59.34
2023-04-28T05:37:05.972Z,59.81
2023-04-28T05:38:05.972Z,59.47
2023-04-28T05:39:05.977Z,59.29
2023-04-28T05:40:05.949Z,59.32
2023-04-28T05:41:05.974Z,60.64
2023-04-28T05:42:05.933Z,59.97
2023-04-28T05:43:05.937Z,59.39
2023-04-28T05:44:05.923Z,59.79
2023-04-28T05:45:05.924Z,58.52
2023-04-28T05:46:12.029Z,57.54
2023-04-28T05:47:07.900Z,57.43
2023-04-28T05:48:05.934Z,58.40
2023-04-28T05:49:05.884Z,57.80
2023-04-28T05:50:05.884Z,57.30
2023-04-28T05:51:05.904Z,57.88
2023-04-28T05:52:05.869Z,57.70
2023-04-28T05:53:05.868Z,57.71
2023-04-28T05:54:05.849Z,57.09
2023-04-28T05:55:06.003Z,58.14
2023-04-28T05:56:05.838Z,58.27
2023-04-28T05:57:05.837Z,58.06
2023-04-28T05:58:05.833Z,58.11
2023-04-28T05:59:05.817Z,58.91
2023-04-28T06:00:05.820Z,59.22
2023-04-28T06:01:05.832Z,59.23
2023-04-28T06:02:05.856Z,59.94
2023-04-28T06:03:05.933Z,58.11
2023-04-28T06:04:06.188Z,57.57
2023-04-28T06:05:05.874Z,58.05
2023-04-28T06:06:09.763Z,59.10
2023-04-28T06:07:06.808Z,58.54
2023-04-28T06:08:05.766Z,58.65
2023-04-28T06:09:05.756Z,57.75
2023-04-28T06:10:05.749Z,56.76
2023-04-28T06:11:05.778Z,56.98
2023-04-28T06:12:05.723Z,56.85
2023-04-28T06:13:06.737Z,59.16
2023-04-28T06:14:05.721Z,57.47
2023-04-28T06:15:05.726Z,58.74
2023-04-28T06:16:05.733Z,58.54
2023-04-28T06:17:05.738Z,59.05
2023-04-28T06:18:05.730Z,58.88
2023-04-28T06:19:05.693Z,59.71
2023-04-28T06:20:05.686Z,58.94
2023-04-28T06:21:05.670Z,58.83
2023-04-28T06:22:05.682Z,58.42
2023-04-28T06:23:05.704Z,57.48
2023-04-28T06:24:05.672Z,58.46
2023-04-28T06:25:05.662Z,57.50
2023-04-28T06:26:05.683Z,58.14
2023-04-28T06:27:05.635Z,58.47
2023-04-28T06:28:05.690Z,58.12
2023-04-28T06:29:05.621Z,58.06
2023-04-28T06:30:05.622Z,57.39
2023-04-28T06:31:05.636Z,57.08
2023-04-28T06:32:05.604Z,58.56
2023-04-28T06:33:05.637Z,58.12
2023-04-28T06:34:05.614Z,57.03
2023-04-28T06:35:05.592Z,57.12
2023-04-28T06:36:05.588Z,56.21
2023-04-28T06:37:05.573Z,56.90
2023-04-28T06:38:05.556Z,56.60
2023-04-28T06:39:05.577Z,56.77
2023-04-28T06:40:05.559Z,57.36
2023-04-28T06:41:05.565Z,55.65
2023-04-28T06:42:05.534Z,56.35
2023-04-28T06:43:05.557Z,56.98
2023-04-28T06:44:05.554Z,56.82
2023-04-28T06:45:05.562Z,57.84
2023-04-28T06:46:05.513Z,57.52
2023-04-28T06:47:05.520Z,55.63
2023-04-28T06:48:05.574Z,57.75
2023-04-28T06:49:05.490Z,57.85
2023-04-28T06:50:06.518Z,58.37
2023-04-28T06:51:05.491Z,56.67
2023-04-28T06:52:05.483Z,56.71
2023-04-28T06:53:05.507Z,56.76
2023-04-28T06:54:05.463Z,57.22
2023-04-28T06:55:05.460Z,56.38
2023-04-28T06:56:05.465Z,57.08
2023-04-28T06:57:05.457Z,54.74
2023-04-28T06:58:05.455Z,56.41
2023-04-28T06:59:05.420Z,55.78
2023-04-28T07:00:05.434Z,56.35
2023-04-28T07:01:05.450Z,54.36
2023-04-28T07:02:05.506Z,55.79
2023-04-28T07:03:05.489Z,57.52
2023-04-28T07:04:05.601Z,56.56
2023-04-28T07:05:05.399Z,56.10
2023-04-28T07:06:05.393Z,56.49
2023-04-28T07:07:05.369Z,57.47
2023-04-28T07:08:05.370Z,56.73
2023-04-28T07:09:05.366Z,57.05
2023-04-28T07:10:05.390Z,57.68
2023-04-28T07:11:05.351Z,56.35
2023-04-28T07:12:05.340Z,56.91
2023-04-28T07:13:05.355Z,56.74
2023-04-28T07:14:05.339Z,57.30
2023-04-28T07:15:05.381Z,56.61
2023-04-28T07:16:05.366Z,56.82
2023-04-28T07:17:05.317Z,57.18
2023-04-28T07:18:05.398Z,57.85
2023-04-28T07:19:05.310Z,58.51
2023-04-28T07:20:05.319Z,58.04
2023-04-28T07:21:05.759Z,58.68
2023-04-28T07:22:06.282Z,59.00
2023-04-28T07:23:05.295Z,58.94
2023-04-28T07:24:05.267Z,58.57
2023-04-28T07:25:05.255Z,58.21
2023-04-28T07:26:05.413Z,58.67
2023-04-28T07:27:05.266Z,57.59
2023-04-28T07:28:05.238Z,56.54
2023-04-28T07:29:05.292Z,57.85
2023-04-28T07:30:15.216Z,57.88
2023-04-28T07:31:07.218Z,58.14
2023-04-28T07:32:06.814Z,57.34
2023-04-28T07:33:06.263Z,56.97
2023-04-28T07:34:05.259Z,58.41
2023-04-28T07:35:05.212Z,58.52
2023-04-28T07:36:05.182Z,57.95
2023-04-28T07:37:05.182Z,56.80
2023-04-28T07:38:05.183Z,57.14
2023-04-28T07:39:05.249Z,58.53
2023-04-28T07:40:05.153Z,57.72
2023-04-28T07:41:06.736Z,57.31
2023-04-28T07:42:05.138Z,58.07
2023-04-28T07:43:05.149Z,56.93
2023-04-28T07:44:05.134Z,57.79
2023-04-28T07:45:05.133Z,57.64
2023-04-28T07:46:05.226Z,58.08
2023-04-28T07:47:05.143Z,57.66
2023-04-28T07:48:05.199Z,56.54
2023-04-28T07:49:05.114Z,56.82
2023-04-28T07:50:05.095Z,58.40
2023-04-28T07:51:05.076Z,58.41
2023-04-28T07:52:05.095Z,57.31
2023-04-28T07:53:05.086Z,57.82
2023-04-28T07:54:05.081Z,57.08
2023-04-28T07:55:05.056Z,56.96
2023-04-28T07:56:05.042Z,56.11
2023-04-28T07:57:05.076Z,56.79
2023-04-28T07:58:05.037Z,58.36
2023-04-28T07:59:05.037Z,57.06
2023-04-28T08:00:06.050Z,57.41
2023-04-28T08:01:05.016Z,57.18
2023-04-28T08:02:05.111Z,57.24
2023-04-28T08:03:05.163Z,56.43
2023-04-28T08:04:05.292Z,56.34
2023-04-28T08:05:05.200Z,57.19
2023-04-28T08:06:05.070Z,56.96
2023-04-28T08:07:04.972Z,58.56
2023-04-28T08:08:04.969Z,57.44
2023-04-28T08:09:04.965Z,57.35
2023-04-28T08:10:04.979Z,57.52
2023-04-28T08:11:04.974Z,57.82
2023-04-28T08:12:04.943Z,59.29
2023-04-28T08:13:04.927Z,58.00
2023-04-28T08:14:05.928Z,58.95
2023-04-28T08:15:04.962Z,56.96
2023-04-28T08:16:05.005Z,58.15
2023-04-28T08:17:04.955Z,57.42
2023-04-28T08:18:04.977Z,57.81
2023-04-28T08:19:04.957Z,59.29
2023-04-28T08:20:04.913Z,56.67
2023-04-28T08:21:04.884Z,57.32
2023-04-28T08:22:04.892Z,58.16
2023-04-28T08:23:04.864Z,57.72
2023-04-28T08:24:04.873Z,58.27
2023-04-28T08:25:04.858Z,58.75
2023-04-28T08:26:04.860Z,57.32
2023-04-28T08:27:04.852Z,58.44
2023-04-28T08:28:04.858Z,58.43
2023-04-28T08:29:04.847Z,57.65
2023-04-28T08:30:04.839Z,57.28
2023-04-28T08:31:04.849Z,56.16
2023-04-28T08:32:04.826Z,55.62
2023-04-28T08:33:06.218Z,55.24
2023-04-28T08:34:04.824Z,56.23
2023-04-28T08:35:04.801Z,56.12
2023-04-28T08:36:04.799Z,58.25
2023-04-28T08:37:04.780Z,58.39
2023-04-28T08:38:04.778Z,59.41
2023-04-28T08:39:04.781Z,58.05
2023-04-28T08:40:04.763Z,56.19
2023-04-28T08:41:04.780Z,57.29
2023-04-28T08:42:04.758Z,56.48
2023-04-28T08:43:04.816Z,56.71
2023-04-28T08:44:04.742Z,57.20
2023-04-28T08:45:04.748Z,56.21
2023-04-28T08:46:04.830Z,56.03
2023-04-28T08:47:04.728Z,56.31
2023-04-28T08:48:04.733Z,55.93
2023-04-28T08:49:04.711Z,55.56
2023-04-28T08:50:04.710Z,56.08
2023-04-28T08:51:04.693Z,56.27
2023-04-28T08:52:04.697Z,54.91
2023-04-28T08:53:04.698Z,56.56
2023-04-28T08:54:22.880Z,57.43
2023-04-28T08:55:06.717Z,56.39
2023-04-28T08:56:04.688Z,55.85
2023-04-28T08:57:04.699Z,56.29
2023-04-28T08:58:04.668Z,56.57
2023-04-28T08:59:04.662Z,55.30
2023-04-28T09:00:04.689Z,55.53
2023-04-28T09:01:04.651Z,55.23
2023-04-28T09:02:04.713Z,54.50
2023-04-28T09:03:04.735Z,54.53
2023-04-28T09:04:04.732Z,55.65
2023-04-28T09:05:04.910Z,54.73
2023-04-28T09:06:04.613Z,55.89
2023-04-28T09:07:04.632Z,57.10
2023-04-28T09:08:04.624Z,57.43
2023-04-28T09:09:04.609Z,56.96
2023-04-28T09:10:04.589Z,58.56
2023-04-28T09:11:04.591Z,56.81
2023-04-28T09:12:04.588Z,56.74
2023-04-28T09:13:04.576Z,57.17
2023-04-28T09:14:04.560Z,57.40
2023-04-28T09:15:04.546Z,57.67
2023-04-28T09:16:04.575Z,59.43
2023-04-28T09:17:04.552Z,60.19
2023-04-28T09:18:04.587Z,59.57
2023-04-28T09:19:04.525Z,58.59
2023-04-28T09:20:04.524Z,58.08
2023-04-28T09:21:04.547Z,57.40
2023-04-28T09:22:17.554Z,58.28
2023-04-28T09:23:06.601Z,55.94
2023-04-28T09:24:04.514Z,57.47
2023-04-28T09:25:04.498Z,58.11
2023-04-28T09:26:04.507Z,59.32
2023-04-28T09:27:04.491Z,57.30
2023-04-28T09:28:04.472Z,57.93
2023-04-28T09:29:04.478Z,56.79
2023-04-28T09:30:04.459Z,57.95
2023-04-28T09:31:04.463Z,58.80
2023-04-28T09:32:04.500Z,57.64
2023-04-28T09:33:04.464Z,57.69
2023-04-28T09:34:04.470Z,58.96
2023-04-28T09:35:04.441Z,58.51
2023-04-28T09:36:04.434Z,59.45
2023-04-28T09:37:04.477Z,59.51
2023-04-28T09:38:04.410Z,59.65
2023-04-28T09:39:04.441Z,60.16
2023-04-28T09:40:04.408Z,60.75
2023-04-28T09:41:04.392Z,60.53
2023-04-28T09:42:04.514Z,59.61
2023-04-28T09:43:18.787Z,60.10
2023-04-28T09:44:06.430Z,58.73
2023-04-28T09:45:04.368Z,57.40
2023-04-28T09:46:04.401Z,59.29
2023-04-28T09:47:04.376Z,59.21
2023-04-28T09:48:04.501Z,59.29
2023-04-28T09:49:04.350Z,59.01
2023-04-28T09:50:04.384Z,58.66
2023-04-28T09:51:04.336Z,58.75
2023-04-28T09:52:04.340Z,59.59
2023-04-28T09:53:04.334Z,60.07
2023-04-28T09:54:04.367Z,59.62
2023-04-28T09:55:04.550Z,58.45
2023-04-28T09:56:04.323Z,59.10
2023-04-28T09:57:04.717Z,59.19
2023-04-28T09:58:04.295Z,59.28
2023-04-28T09:59:04.311Z,59.50
2023-04-28T10:00:04.309Z,59.08
2023-04-28T10:01:04.293Z,58.21
2023-04-28T10:02:12.890Z,57.91
2023-04-28T10:03:06.339Z,58.68
2023-04-28T10:04:04.370Z,58.22
2023-04-28T10:05:04.506Z,59.63
2023-04-28T10:06:04.279Z,58.12
2023-04-28T10:07:04.255Z,56.88
2023-04-28T10:08:04.241Z,59.27
2023-04-28T10:09:04.230Z,57.26
2023-04-28T10:10:04.255Z,57.89
2023-04-28T10:11:04.231Z,57.75
2023-04-28T10:12:04.208Z,58.62
2023-04-28T10:13:04.207Z,58.63
2023-04-28T10:14:04.199Z,58.31
2023-04-28T10:15:04.188Z,59.93
2023-04-28T10:16:04.216Z,58.59
2023-04-28T10:17:04.205Z,60.00
2023-04-28T10:18:04.237Z,59.96
2023-04-28T10:19:04.181Z,60.20
2023-04-28T10:20:05.241Z,60.06
2023-04-28T10:21:04.169Z,59.80
2023-04-28T10:22:04.160Z,59.70
2023-04-28T10:23:04.144Z,58.97
2023-04-28T10:24:04.143Z,59.31
2023-04-28T10:25:04.151Z,60.15
2023-04-28T10:26:04.113Z,59.85
2023-04-28T10:27:04.141Z,59.08
2023-04-28T10:28:04.108Z,57.35
2023-04-28T10:29:04.114Z,58.38
2023-04-28T10:30:08.344Z,58.32
2023-04-28T10:31:05.150Z,60.05
2023-04-28T10:32:04.104Z,58.46
2023-04-28T10:33:04.231Z,58.23
2023-04-28T10:34:04.064Z,58.10
2023-04-28T10:35:04.074Z,58.27
2023-04-28T10:36:04.070Z,57.90
2023-04-28T10:37:04.083Z,57.09
2023-04-28T10:38:04.050Z,57.54
2023-04-28T10:39:04.042Z,57.18
2023-04-28T10:40:04.594Z,57.98
2023-04-28T10:41:04.020Z,59.14
2023-04-28T10:42:04.047Z,60.26
2023-04-28T10:43:04.075Z,60.01
2023-04-28T10:44:04.014Z,59.45
2023-04-28T10:45:04.020Z,59.73
2023-04-28T10:46:04.066Z,57.99
2023-04-28T10:47:03.985Z,58.74
2023-04-28T10:48:04.017Z,59.43
2023-04-28T10:49:03.979Z,59.67
2023-04-28T10:50:03.975Z,61.40
2023-04-28T10:51:04.198Z,59.57
2023-04-28T10:52:03.971Z,60.90
2023-04-28T10:53:03.966Z,62.36
2023-04-28T10:54:03.949Z,65.68
2023-04-28T10:55:15.727Z,58.93
2023-04-28T10:56:05.949Z,61.15
2023-04-28T10:57:03.926Z,61.51
2023-04-28T10:58:03.940Z,60.69
2023-04-28T10:59:03.945Z,59.82
2023-04-28T11:00:03.900Z,59.01
2023-04-28T11:01:03.934Z,58.74
2023-04-28T11:02:03.985Z,58.67
2023-04-28T11:03:03.968Z,60.45
2023-04-28T11:04:04.526Z,59.73
2023-04-28T11:05:03.932Z,59.48
2023-04-28T11:06:03.866Z,59.63
2023-04-28T11:07:03.878Z,59.23
2023-04-28T11:08:03.862Z,59.57
2023-04-28T11:09:03.903Z,59.45
2023-04-28T11:10:03.841Z,58.43
2023-04-28T11:11:03.838Z,59.06
2023-04-28T11:12:03.829Z,58.93
2023-04-28T11:13:03.829Z,58.88
2023-04-28T11:14:03.840Z,60.10
2023-04-28T11:15:03.821Z,59.98
2023-04-28T11:16:03.907Z,57.46
2023-04-28T11:17:03.806Z,58.28
2023-04-28T11:18:03.805Z,58.53
2023-04-28T11:19:03.815Z,58.57
2023-04-28T11:20:03.795Z,58.51
2023-04-28T11:21:03.770Z,60.14
2023-04-28T11:22:03.765Z,61.36
2023-04-28T11:23:03.769Z,58.29
2023-04-28T11:24:03.750Z,58.09
2023-04-28T11:25:03.735Z,58.06
2023-04-28T11:26:03.736Z,59.28
2023-04-28T11:27:03.759Z,59.44
2023-04-28T11:28:03.716Z,58.23
2023-04-28T11:29:03.718Z,59.22
2023-04-28T11:30:03.703Z,59.38
2023-04-28T11:31:03.699Z,61.57
2023-04-28T11:32:04.141Z,60.13
2023-04-28T11:33:03.709Z,60.26
2023-04-28T11:34:03.707Z,60.00
2023-04-28T11:35:03.690Z,59.26
2023-04-28T11:36:03.686Z,60.02
2023-04-28T11:37:03.680Z,59.77
2023-04-28T11:38:03.665Z,58.82
2023-04-28T11:39:03.654Z,58.94
2023-04-28T11:40:03.659Z,59.62
2023-04-28T11:41:03.651Z,59.03
2023-04-28T11:42:03.637Z,59.26
2023-04-28T11:43:03.710Z,61.74
2023-04-28T11:44:03.644Z,60.32
2023-04-28T11:45:03.616Z,60.78
2023-04-28T11:46:03.693Z,61.51
2023-04-28T11:47:04.134Z,58.85
2023-04-28T11:48:03.686Z,59.24
2023-04-28T11:49:03.604Z,60.30
2023-04-28T11:50:03.629Z,58.85
2023-04-28T11:51:03.566Z,59.34
2023-04-28T11:52:03.571Z,61.19
2023-04-28T11:53:03.566Z,60.05
2023-04-28T11:54:03.562Z,59.07
2023-04-28T11:55:03.552Z,60.12
2023-04-28T11:56:03.584Z,59.22
2023-04-28T11:57:03.527Z,59.47
2023-04-28T11:58:03.542Z,61.82
2023-04-28T11:59:04.013Z,63.15
2023-04-28T12:00:04.531Z,59.02
2023-04-28T12:01:03.537Z,59.19
2023-04-28T12:02:03.579Z,58.11
2023-04-28T12:03:03.622Z,58.62
2023-04-28T12:04:03.657Z,58.82
2023-04-28T12:05:03.512Z,58.09
2023-04-28T12:06:04.505Z,59.16
2023-04-28T12:07:03.518Z,59.51
2023-04-28T12:08:03.478Z,62.26
2023-04-28T12:09:03.465Z,60.16
2023-04-28T12:10:03.452Z,59.42
2023-04-28T12:11:03.444Z,60.70
2023-04-28T12:12:03.527Z,60.64
2023-04-28T12:13:03.442Z,60.33
2023-04-28T12:14:03.430Z,59.38
2023-04-28T12:15:03.439Z,59.66
2023-04-28T12:16:03.495Z,59.85
2023-04-28T12:17:03.417Z,60.03
2023-04-28T12:18:03.485Z,60.15
2023-04-28T12:19:03.389Z,59.30
2023-04-28T12:20:03.388Z,59.84
2023-04-28T12:21:03.384Z,60.70
2023-04-28T12:22:03.402Z,60.63
2023-04-28T12:23:03.359Z,59.83
2023-04-28T12:24:03.361Z,59.26
2023-04-28T12:25:03.352Z,60.11
2023-04-28T12:26:03.347Z,61.09
2023-04-28T12:27:03.403Z,59.38
2023-04-28T12:28:03.343Z,59.58
2023-04-28T12:29:03.326Z,59.64
2023-04-28T12:30:03.336Z,59.71
2023-04-28T12:31:03.321Z,60.77
2023-04-28T12:32:03.306Z,60.36
2023-04-28T12:33:03.359Z,61.18
2023-04-28T12:34:03.293Z,61.11
2023-04-28T12:35:03.278Z,60.06
2023-04-28T12:36:03.301Z,60.44
2023-04-28T12:37:03.264Z,59.43
2023-04-28T12:38:03.618Z,59.58
2023-04-28T12:39:03.261Z,61.30
2023-04-28T12:40:03.279Z,62.97
2023-04-28T12:41:03.242Z,61.92
2023-04-28T12:42:03.239Z,62.51
2023-04-28T12:43:04.272Z,62.26
2023-04-28T12:44:03.267Z,62.23
2023-04-28T12:45:03.248Z,61.82
2023-04-28T12:46:03.242Z,62.06
2023-04-28T12:47:03.247Z,61.76
2023-04-28T12:48:03.274Z,62.07
2023-04-28T12:49:03.193Z,63.09
2023-04-28T12:50:03.208Z,63.43
2023-04-28T12:51:03.206Z,63.69
2023-04-28T12:52:03.175Z,62.95